Etusivu
METAR-TAF:

METAR-TAF

Lentoasemat :

Oradea, Romania

Leveyspiiri: 47-03N, Pituuspiiri: 021-56E, korkeus merenpinnasta: 135 m

Tämänhetkinen sää

Tämä raportti tehtiin 16 minuuttia sitten, kello 02.30 UTC
Tuuli 6 kn etelästä
Lämpötila 9°C
Kosteus 93%
Ilmanpaine 1011 hPa
Näkyvyys 10 km tai enemmän

METAR: LROD 310230Z AUTO 17006KT 9999 OVC095/// 09/08 Q1011

Aika: 05:46 (02:46 UTC)

Sääennuste

Tämä raportti tehtiin 46 minuuttia sitten, kello 02.00 UTC
Ennuste voimassa 31. päivästä klo 03 UTC - 31. päivään klo 12 UTC
Tuuli 4 kn eri suunnista
Näkyvyys 10 km tai enemmän
ei pilviä alle 1500 m:ssä eikä cumulonimbus-pilviä
Tulossa
31. päivästä klo 06 UTC - 31. päivään klo 08 UTC
Tuuli 10 kn lännestä
Ajoittain
31. päivästä klo 09 UTC - 31. päivään klo 12 UTC
Näkyvyys: 5000 m
Hajonneita pilviä 1500 ft:n korkeudessa
Hajonneita pilviä 4000 ft:n korkeudessa
heikkoa sadetta

TAF: LROD 310200Z 3103/3112 VRB04KT CAVOK BECMG 3106/3108 26010KT TEMPO 3109/3112 5000 -RA BKN015 BKN040

Säähavainnot ja -ennusteet yli 4000 lentoasemalta (METAR- ja TAF-raportit).

Käytössä olevat sääasemat on merkitty karttaan keltaisilla ja punaisilla pisteillä.

Aseta hiiri pisteen päälle nähdäksesi sääaseman nimen.

Klikkaa sitten nähdäksesi säähavainnot ja -ennusteet.

Kartan vaihtaminen: klikkaa mustalla rastilla varustettuja vihreitä pisteitä, niin voit zoomata sisään; viivalla varustettua vihreää pistettä, niin voit zoomata ulos tai vihreitä nuolia, niin pääset viereisille kartoille.


METAR-TAF: